Gordon, Georgia
Current Conditions -  °F | °C
As of 4:55 AM on Sunday 23 Nov 2014 (Local Time) from KMLJ Reporting Station
Light Rain Light Rain  
Wind Chill: 54°   Ceiling: 700
Heat Index: 54°   Visibility: 10mi
Dew Point: 54°   Wind: 5mph
Humidity: 100%   Direction: 100°E
Pressure: 30.09"   Gusts: NA
Location:  32.88°N, 83.33°W
Report Text: KMLJ 230955Z AUTO 10004KT 10SM -RA BKN007 OVC019 12/12 A3009 RMK AO2
Loading
Personal Weather Stations






























Interactive Weather Map New forecast layout! Learn more

10-Day Weather Forecast

Advertisements
Track Severe Weather on mobile